Main page
METAR-TAF:

METAR-TAF

Airports :

Marsa Matruh International Airport

Marsa Matruh, Egypt

latitude: 31-20N, longitude: 027-13E, elevation: 25 m

Current weather observation

The report was made 1 hour and 20 minutes ago, at 05:00 UTC
Wind 6 kt from the North
Temperature 24°C
Humidity 61%
Pressure 1017 hPa
Visibility 10 km or more
Scattered clouds at a height of 2000 ft

METAR: HEMM 260500Z 36006KT 9999 SCT020 24/16 Q1017 NOSIG

Time: 08:20 (06:20 UTC)

Forecast

The report was made 1 hour and 20 minutes ago, at 05:00 UTC
Forecast valid from 26 at 06 UTC to 27 at 12 UTC
Wind 9 kt from the North
Visibility 10 km or more
Scattered clouds at a height of 2000 ft

TAF: HEMM 260500Z 2606/2712 01009KT 9999 SCT020

Weather observations and forecasts of more than 4000 airports (METAR and TAF reports).

The available stations are represented by yellow and red dots on the map.

Hover mouse over dot to see the name of the station.

Then click to see weather observations and forecasts.

To change the map : click on the green buttons with a black cross to zoom in, on the green button with a dash to zoom out, or on the green arrows for adjacent maps.


METAR-TAF: